Terminal Aerodrome Forecast
Issued by NWS

Home | Current Version | Previous Version | Text Only | Print | Product List | Glossary On
Versions: 1 2 3 4 5 6 7 8 9 10 11 12 13 14 15 16 17 18 19 20 21 22
725
FTUS44 KBMX 012211 AAC
TAFEET
TAF AMD
KEET 012211Z 0122/0218 VRB06G15KT 6SM -SHRA SCT050 OVC080
     FM012300 16004KT P6SM BKN080
     FM020900 15004KT P6SM BKN015=

USA.gov is the U.S. government's official web portal to all federal, state and local government web resources and services.